createdAt,value
2023-04-26T00:01:31.935Z,19.93
2023-04-26T00:03:58.807Z,14.37
2023-04-26T00:06:27.243Z,13.13
2023-04-26T00:08:54.799Z,16.77
2023-04-26T00:11:23.014Z,15.47
2023-04-26T00:13:49.823Z,17.00
2023-04-26T00:16:18.303Z,13.43
2023-04-26T00:18:46.272Z,18.90
2023-04-26T00:21:13.347Z,19.10
2023-04-26T00:23:40.169Z,14.13
2023-04-26T00:26:07.662Z,11.10
2023-04-26T00:28:34.577Z,13.63
2023-04-26T00:31:01.685Z,19.70
2023-04-26T00:33:28.802Z,13.47
2023-04-26T00:35:55.633Z,13.93
2023-04-26T00:38:22.401Z,16.43
2023-04-26T00:40:49.102Z,7.80
2023-04-26T00:43:16.064Z,9.60
2023-04-26T00:45:43.265Z,15.00
2023-04-26T00:48:10.103Z,10.67
2023-04-26T00:50:37.049Z,19.87
2023-04-26T00:53:04.155Z,7.10
2023-04-26T00:55:31.387Z,6.77
2023-04-26T00:57:58.739Z,11.53
2023-04-26T01:00:25.939Z,14.03
2023-04-26T01:02:53.173Z,14.97
2023-04-26T01:05:20.064Z,14.73
2023-04-26T01:07:47.284Z,19.53
2023-04-26T01:10:14.077Z,14.57
2023-04-26T01:12:40.877Z,18.33
2023-04-26T01:15:08.100Z,9.90
2023-04-26T01:17:34.905Z,14.10
2023-04-26T01:20:02.029Z,13.17
2023-04-26T01:22:33.578Z,12.37
2023-04-26T01:25:03.865Z,19.33
2023-04-26T01:27:31.014Z,10.50
2023-04-26T01:29:58.131Z,12.90
2023-04-26T01:32:25.297Z,14.83
2023-04-26T01:34:52.068Z,15.27
2023-04-26T01:37:18.813Z,14.97
2023-04-26T01:39:46.496Z,16.63
2023-04-26T01:42:13.298Z,10.50
2023-04-26T01:44:40.009Z,10.93
2023-04-26T01:47:07.044Z,17.83
2023-04-26T01:49:33.839Z,11.73
2023-04-26T01:52:02.046Z,11.20
2023-04-26T01:54:29.185Z,11.03
2023-04-26T01:56:56.522Z,19.77
2023-04-26T01:59:23.378Z,12.93
2023-04-26T02:01:50.227Z,8.90
2023-04-26T02:04:17.016Z,22.27
2023-04-26T02:06:43.779Z,11.73
2023-04-26T02:09:10.537Z,30.73
2023-04-26T02:11:37.214Z,12.40
2023-04-26T02:14:03.963Z,9.63
2023-04-26T02:16:32.539Z,13.13
2023-04-26T02:19:00.061Z,12.87
2023-04-26T02:21:28.710Z,14.53
2023-04-26T02:23:55.521Z,13.40
2023-04-26T02:26:22.342Z,15.33
2023-04-26T02:28:49.533Z,12.97
2023-04-26T02:31:16.866Z,11.73
2023-04-26T02:33:43.628Z,9.47
2023-04-26T02:36:10.851Z,13.50
2023-04-26T02:38:38.031Z,18.07
2023-04-26T02:41:05.112Z,18.03
2023-04-26T02:43:32.314Z,10.83
2023-04-26T02:46:01.107Z,11.43
2023-04-26T02:48:27.892Z,11.23
2023-04-26T02:50:54.598Z,13.17
2023-04-26T02:53:21.622Z,12.90
2023-04-26T02:55:48.336Z,11.07
2023-04-26T02:58:15.507Z,14.87
2023-04-26T03:00:48.378Z,12.73
2023-04-26T03:03:15.884Z,12.70
2023-04-26T03:05:43.038Z,17.17
2023-04-26T03:08:10.857Z,15.60
2023-04-26T03:10:37.663Z,25.90
2023-04-26T03:13:07.341Z,25.77
2023-04-26T03:15:34.061Z,17.53
2023-04-26T03:18:01.240Z,17.60
2023-04-26T03:20:28.417Z,28.80
2023-04-26T03:22:55.723Z,22.20
2023-04-26T03:25:22.484Z,27.53
2023-04-26T03:27:49.220Z,14.00
2023-04-26T03:30:16.163Z,14.70
2023-04-26T03:32:43.357Z,18.57
2023-04-26T03:35:10.579Z,14.60
2023-04-26T03:37:39.822Z,16.57
2023-04-26T03:40:10.351Z,14.50
2023-04-26T03:42:37.670Z,23.40
2023-04-26T03:45:05.084Z,22.53
2023-04-26T03:47:32.143Z,48.27
2023-04-26T03:49:59.102Z,20.80
2023-04-26T03:52:26.312Z,16.53
2023-04-26T03:54:53.508Z,19.53
2023-04-26T03:57:20.320Z,17.30
2023-04-26T03:59:48.577Z,14.17
2023-04-26T04:02:16.410Z,23.30
2023-04-26T04:04:46.961Z,19.53
2023-04-26T04:07:14.268Z,19.83
2023-04-26T04:09:41.425Z,14.10
2023-04-26T04:12:08.595Z,15.77
2023-04-26T04:14:35.726Z,32.73
2023-04-26T04:17:02.392Z,24.17
2023-04-26T04:19:29.193Z,15.33
2023-04-26T04:21:56.330Z,19.60
2023-04-26T04:24:23.271Z,16.97
2023-04-26T04:26:50.005Z,12.47
2023-04-26T04:29:17.127Z,25.37
2023-04-26T04:31:44.370Z,19.23
2023-04-26T04:34:11.227Z,16.60
2023-04-26T04:36:39.013Z,23.53
2023-04-26T04:39:09.697Z,35.83
2023-04-26T04:41:36.955Z,13.90
2023-04-26T04:44:04.164Z,20.63
2023-04-26T04:46:30.969Z,16.90
2023-04-26T04:48:57.732Z,19.17
2023-04-26T04:51:24.853Z,20.53
2023-04-26T04:53:51.666Z,12.87
2023-04-26T04:56:19.547Z,36.80
2023-04-26T04:58:46.445Z,20.57
2023-04-26T05:01:13.549Z,19.40
2023-04-26T05:03:40.514Z,19.17
2023-04-26T05:06:08.069Z,22.47
2023-04-26T05:08:36.378Z,13.77
2023-04-26T05:11:03.113Z,14.47
2023-04-26T05:13:30.293Z,26.10
2023-04-26T05:15:57.455Z,15.07
2023-04-26T05:18:24.253Z,21.37
2023-04-26T05:20:51.117Z,16.03
2023-04-26T05:23:17.887Z,11.77
2023-04-26T05:25:45.520Z,16.67
2023-04-26T05:28:13.918Z,15.33
2023-04-26T05:30:40.824Z,30.23
2023-04-26T05:33:07.575Z,17.00
2023-04-26T05:35:35.539Z,18.33
2023-04-26T05:38:02.305Z,23.30
2023-04-26T05:40:29.312Z,15.43
2023-04-26T05:42:56.496Z,12.73
2023-04-26T05:45:23.660Z,15.10
2023-04-26T05:47:51.390Z,22.13
2023-04-26T05:50:18.594Z,20.50
2023-04-26T05:52:45.368Z,21.20
2023-04-26T05:55:13.431Z,17.13
2023-04-26T05:57:40.533Z,17.70
2023-04-26T06:00:09.846Z,20.77
2023-04-26T06:02:36.769Z,16.83
2023-04-26T06:05:05.336Z,19.30
2023-04-26T06:07:32.709Z,19.10
2023-04-26T06:10:02.456Z,15.17
2023-04-26T06:12:29.372Z,12.67
2023-04-26T06:14:56.076Z,17.50
2023-04-26T06:17:23.162Z,17.17
2023-04-26T06:19:49.976Z,19.07
2023-04-26T06:22:17.106Z,14.07
2023-04-26T06:24:43.859Z,13.70
2023-04-26T06:27:10.670Z,14.23
2023-04-26T06:29:37.815Z,18.27
2023-04-26T06:32:04.751Z,12.07
2023-04-26T06:34:31.667Z,13.63
2023-04-26T06:36:58.377Z,11.47
2023-04-26T06:39:25.329Z,20.00
2023-04-26T06:41:52.666Z,19.97
2023-04-26T06:44:19.459Z,13.87
2023-04-26T06:46:46.554Z,20.43
2023-04-26T06:49:13.388Z,20.00
2023-04-26T06:51:40.252Z,14.40
2023-04-26T06:54:07.028Z,13.10
2023-04-26T06:56:33.798Z,15.90
2023-04-26T06:59:05.238Z,13.00
2023-04-26T07:01:36.133Z,10.20
2023-04-26T07:04:04.366Z,9.23
2023-04-26T07:06:32.125Z,9.40
2023-04-26T07:09:01.231Z,13.50
2023-04-26T07:11:28.419Z,14.33
2023-04-26T07:13:55.739Z,9.53
2023-04-26T07:16:23.161Z,12.27
2023-04-26T07:18:50.060Z,20.80
2023-04-26T07:21:16.817Z,12.83
2023-04-26T07:23:43.548Z,11.00
2023-04-26T07:26:13.371Z,14.27
2023-04-26T07:28:40.283Z,24.17
2023-04-26T07:31:09.195Z,11.47
2023-04-26T07:33:37.089Z,7.53
2023-04-26T07:36:04.198Z,12.30
2023-04-26T07:38:31.503Z,14.40
2023-04-26T07:40:58.361Z,18.13
2023-04-26T07:43:26.412Z,24.03
2023-04-26T07:45:53.504Z,14.63
2023-04-26T07:48:20.251Z,8.23
2023-04-26T07:50:47.076Z,9.40
2023-04-26T07:53:13.786Z,8.33
2023-04-26T07:55:40.597Z,17.60
2023-04-26T07:58:08.104Z,12.00
2023-04-26T08:00:38.520Z,6.80
2023-04-26T08:03:05.521Z,13.50
2023-04-26T08:05:32.758Z,5.80
2023-04-26T08:08:01.617Z,21.43
2023-04-26T08:10:28.841Z,9.23
2023-04-26T08:12:57.352Z,8.40
2023-04-26T08:15:24.582Z,11.20
2023-04-26T08:17:53.429Z,9.87
2023-04-26T08:20:20.900Z,11.67
2023-04-26T08:22:47.712Z,6.43
2023-04-26T08:25:15.389Z,6.20
2023-04-26T08:27:42.293Z,9.40
2023-04-26T08:30:09.583Z,9.63
2023-04-26T08:32:36.621Z,11.13
2023-04-26T08:35:03.461Z,8.30
2023-04-26T08:37:30.464Z,13.20
2023-04-26T08:39:57.441Z,13.13
2023-04-26T08:42:27.414Z,10.83
2023-04-26T08:44:54.608Z,7.93
2023-04-26T08:47:41.616Z,13.27
2023-04-26T08:50:11.000Z,9.27
2023-04-26T08:52:41.033Z,5.10
2023-04-26T08:55:12.863Z,10.83
2023-04-26T08:57:40.928Z,5.23
2023-04-26T09:00:14.515Z,10.60
2023-04-26T09:02:43.003Z,10.57
2023-04-26T09:05:11.064Z,11.20
2023-04-26T09:07:48.094Z,6.43
2023-04-26T09:10:22.354Z,13.23
2023-04-26T09:12:53.497Z,8.10
2023-04-26T09:15:24.919Z,6.43
2023-04-26T09:17:52.372Z,7.73
2023-04-26T09:20:28.054Z,12.00
2023-04-26T09:23:05.712Z,12.50
2023-04-26T09:25:33.104Z,7.47
2023-04-26T09:28:00.983Z,7.03
2023-04-26T09:30:28.700Z,5.07
2023-04-26T09:33:03.953Z,8.70
2023-04-26T09:35:36.887Z,9.77
2023-04-26T09:38:11.795Z,6.40
2023-04-26T09:40:45.093Z,7.03
2023-04-26T09:43:20.188Z,7.13
2023-04-26T09:45:52.149Z,7.10
2023-04-26T09:48:23.228Z,9.20
2023-04-26T09:50:52.709Z,8.93
2023-04-26T09:53:34.747Z,6.30
2023-04-26T09:56:13.413Z,11.77
2023-04-26T09:58:58.336Z,7.30
2023-04-26T10:01:26.802Z,4.83
2023-04-26T10:03:54.685Z,10.50
2023-04-26T10:06:21.865Z,6.43
2023-04-26T10:08:48.672Z,7.77
2023-04-26T10:11:15.512Z,5.70
2023-04-26T10:13:43.010Z,6.13
2023-04-26T10:16:10.179Z,8.20
2023-04-26T10:18:37.550Z,5.80
2023-04-26T10:21:12.795Z,6.53
2023-04-26T10:23:40.948Z,8.43
2023-04-26T10:26:07.866Z,6.30
2023-04-26T10:28:41.365Z,7.87
2023-04-26T10:31:08.245Z,12.40
2023-04-26T10:33:35.082Z,7.53
2023-04-26T10:36:08.721Z,9.10
2023-04-26T10:39:02.704Z,7.47
2023-04-26T10:41:30.514Z,15.17
2023-04-26T10:43:59.778Z,4.80
2023-04-26T10:46:37.931Z,10.67
2023-04-26T10:49:17.148Z,9.23
2023-04-26T10:52:13.059Z,13.47
2023-04-26T10:54:52.416Z,5.63
2023-04-26T10:57:20.016Z,7.47
2023-04-26T11:00:14.549Z,10.50
2023-04-26T11:02:49.250Z,14.07
2023-04-26T11:05:35.746Z,13.80
2023-04-26T11:08:19.732Z,8.00
2023-04-26T11:10:52.412Z,9.87
2023-04-26T11:13:20.115Z,8.80
2023-04-26T11:15:48.696Z,9.10
2023-04-26T11:18:19.821Z,6.50
2023-04-26T11:20:46.615Z,11.30
2023-04-26T11:23:13.423Z,8.07
2023-04-26T11:25:40.372Z,6.13
2023-04-26T11:28:07.514Z,9.50
2023-04-26T11:30:34.312Z,10.87
2023-04-26T11:33:02.922Z,15.10
2023-04-26T11:35:30.824Z,6.33
2023-04-26T11:38:01.199Z,8.37
2023-04-26T11:40:30.940Z,9.03
2023-04-26T11:43:02.484Z,8.47
2023-04-26T11:45:29.322Z,12.83
2023-04-26T11:47:56.654Z,7.20
2023-04-26T11:50:26.805Z,9.40
2023-04-26T11:52:58.235Z,6.07
2023-04-26T11:55:28.281Z,8.73
2023-04-26T11:57:55.218Z,9.63
2023-04-26T12:00:22.373Z,6.50
2023-04-26T12:02:50.777Z,6.93
2023-04-26T12:05:22.316Z,11.80
2023-04-26T12:07:57.267Z,9.20
2023-04-26T12:10:27.805Z,11.07
2023-04-26T12:12:58.905Z,5.60
2023-04-26T12:15:33.711Z,7.70
2023-04-26T12:18:11.368Z,10.00
2023-04-26T12:20:43.246Z,9.50
2023-04-26T12:23:17.368Z,8.37
2023-04-26T12:25:54.844Z,6.60
2023-04-26T12:28:22.659Z,15.83
2023-04-26T12:30:50.510Z,15.07
2023-04-26T12:33:19.838Z,13.63
2023-04-26T12:35:47.676Z,9.00
2023-04-26T12:38:15.772Z,11.33
2023-04-26T12:40:45.456Z,10.87
2023-04-26T12:43:12.276Z,9.03
2023-04-26T12:45:39.084Z,5.70
2023-04-26T12:48:06.417Z,10.83
2023-04-26T12:50:33.421Z,11.20
2023-04-26T12:53:00.144Z,6.77
2023-04-26T12:55:26.875Z,13.80
2023-04-26T12:57:53.665Z,10.03
2023-04-26T13:00:22.000Z,6.90
2023-04-26T13:02:48.923Z,11.43
2023-04-26T13:05:16.234Z,6.60
2023-04-26T13:07:44.762Z,10.10
2023-04-26T13:10:13.163Z,13.30
2023-04-26T13:12:40.403Z,9.50
2023-04-26T13:15:08.459Z,10.53
2023-04-26T13:17:37.377Z,12.40
2023-04-26T13:20:08.019Z,8.33
2023-04-26T13:22:34.974Z,6.53
2023-04-26T13:25:02.079Z,11.50
2023-04-26T13:27:31.349Z,9.60
2023-04-26T13:29:58.754Z,10.67
2023-04-26T13:32:25.779Z,11.80
2023-04-26T13:34:53.211Z,13.83
2023-04-26T13:37:21.407Z,10.90
2023-04-26T13:39:48.702Z,8.83
2023-04-26T13:42:16.543Z,10.30
2023-04-26T13:44:43.908Z,8.37
2023-04-26T13:47:10.727Z,6.57
2023-04-26T13:49:39.330Z,6.97
2023-04-26T13:52:06.042Z,8.47
2023-04-26T13:54:32.982Z,8.00
2023-04-26T13:56:59.674Z,9.30
2023-04-26T13:59:26.823Z,15.20
2023-04-26T14:01:55.769Z,9.60
2023-04-26T14:04:24.497Z,6.90
2023-04-26T14:06:51.523Z,5.83
2023-04-26T14:09:18.779Z,7.07
2023-04-26T14:11:49.319Z,10.17
2023-04-26T14:14:20.899Z,9.40
2023-04-26T14:16:47.706Z,7.30
2023-04-26T14:19:15.716Z,6.93
2023-04-26T14:21:42.682Z,9.13
2023-04-26T14:24:10.025Z,5.73
2023-04-26T14:26:36.912Z,9.77
2023-04-26T14:29:05.238Z,10.30
2023-04-26T14:31:32.625Z,6.67
2023-04-26T14:33:59.651Z,6.10
2023-04-26T14:36:26.738Z,10.13
2023-04-26T14:38:53.468Z,10.80
2023-04-26T14:41:20.485Z,8.07
2023-04-26T14:43:47.511Z,8.60
2023-04-26T14:46:14.898Z,8.70
2023-04-26T14:48:43.889Z,9.70
2023-04-26T14:51:11.179Z,6.90
2023-04-26T14:53:39.033Z,8.50
2023-04-26T14:56:07.597Z,7.60
2023-04-26T14:58:34.650Z,8.93
2023-04-26T15:01:02.363Z,11.60
2023-04-26T15:03:29.423Z,8.40
2023-04-26T15:05:56.460Z,9.27
2023-04-26T15:08:23.414Z,10.00
2023-04-26T15:10:51.268Z,6.87
2023-04-26T15:13:18.213Z,11.30
2023-04-26T15:15:45.355Z,13.70
2023-04-26T15:18:12.181Z,7.40
2023-04-26T15:20:40.535Z,10.30
2023-04-26T15:23:08.363Z,12.03
2023-04-26T15:25:36.551Z,8.20
2023-04-26T15:28:03.659Z,6.70
2023-04-26T15:30:30.774Z,11.70
2023-04-26T15:32:57.824Z,10.03
2023-04-26T15:35:25.091Z,9.63
2023-04-26T15:37:53.922Z,8.00
2023-04-26T15:40:21.990Z,8.33
2023-04-26T15:42:49.328Z,20.23
2023-04-26T15:45:16.569Z,16.70
2023-04-26T15:47:43.442Z,8.20
2023-04-26T15:50:10.863Z,11.90
2023-04-26T15:52:39.410Z,7.70
2023-04-26T15:55:10.563Z,8.53
2023-04-26T15:57:37.788Z,13.47
2023-04-26T16:00:08.332Z,9.00
2023-04-26T16:02:35.534Z,10.00
2023-04-26T16:05:02.718Z,8.20
2023-04-26T16:07:30.031Z,10.03
2023-04-26T16:09:56.792Z,9.13
2023-04-26T16:12:23.526Z,8.60
2023-04-26T16:14:51.907Z,12.73
2023-04-26T16:17:18.652Z,12.13
2023-04-26T16:19:45.497Z,11.27
2023-04-26T16:22:12.266Z,10.70
2023-04-26T16:24:39.011Z,9.77
2023-04-26T16:27:06.021Z,11.17
2023-04-26T16:29:32.984Z,13.93
2023-04-26T16:31:59.966Z,11.10
2023-04-26T16:34:26.848Z,12.80
2023-04-26T16:36:53.606Z,19.80
2023-04-26T16:39:21.447Z,36.57
2023-04-26T16:41:48.283Z,17.53
2023-04-26T16:44:16.246Z,26.73
2023-04-26T16:46:43.255Z,12.07
2023-04-26T16:49:10.888Z,25.23
2023-04-26T16:51:38.113Z,20.27
2023-04-26T16:54:05.126Z,21.40
2023-04-26T16:56:32.433Z,17.83
2023-04-26T16:58:59.506Z,13.57
2023-04-26T17:01:26.860Z,16.00
2023-04-26T17:03:54.408Z,10.00
2023-04-26T17:06:21.327Z,11.80
2023-04-26T17:08:48.349Z,11.33
2023-04-26T17:11:18.402Z,10.07
2023-04-26T17:13:45.241Z,13.60
2023-04-26T17:16:12.315Z,13.37
2023-04-26T17:18:39.067Z,11.77
2023-04-26T17:21:07.054Z,12.33
2023-04-26T17:23:34.010Z,14.32
2023-04-26T17:26:02.060Z,16.37
2023-04-26T17:28:29.014Z,9.93
2023-04-26T17:30:55.824Z,9.97
2023-04-26T17:33:22.999Z,12.00
2023-04-26T17:35:49.777Z,10.60
2023-04-26T17:38:16.600Z,12.00
2023-04-26T17:40:43.373Z,13.30
2023-04-26T17:43:10.158Z,14.27
2023-04-26T17:45:36.948Z,9.67
2023-04-26T17:48:04.261Z,10.10
2023-04-26T17:50:31.057Z,14.27
2023-04-26T17:52:57.870Z,17.27
2023-04-26T17:55:24.611Z,11.20
2023-04-26T17:57:51.349Z,10.67
2023-04-26T18:00:18.605Z,11.30
2023-04-26T18:02:46.312Z,11.20
2023-04-26T18:05:13.412Z,15.67
2023-04-26T18:07:40.312Z,11.70
2023-04-26T18:10:08.099Z,14.73
2023-04-26T18:12:36.156Z,12.13
2023-04-26T18:15:02.950Z,10.97
2023-04-26T18:17:29.848Z,10.03
2023-04-26T18:19:56.779Z,12.20
2023-04-26T18:22:23.553Z,14.27
2023-04-26T18:24:50.311Z,10.87
2023-04-26T18:27:17.527Z,13.00
2023-04-26T18:29:44.385Z,15.17
2023-04-26T18:32:11.247Z,10.83
2023-04-26T18:34:38.372Z,11.17
2023-04-26T18:37:06.148Z,15.00
2023-04-26T18:39:32.994Z,10.57
2023-04-26T18:41:59.758Z,9.30
2023-04-26T18:44:26.823Z,11.70
2023-04-26T18:46:55.821Z,11.30
2023-04-26T18:49:23.808Z,13.53
2023-04-26T18:51:50.675Z,10.40
2023-04-26T18:54:17.561Z,10.87
2023-04-26T18:56:44.975Z,11.37
2023-04-26T18:59:11.880Z,11.40
2023-04-26T19:01:38.681Z,15.20
2023-04-26T19:04:06.055Z,13.37
2023-04-26T19:06:33.133Z,14.10
2023-04-26T19:09:00.846Z,9.20
2023-04-26T19:11:27.625Z,15.20
2023-04-26T19:13:54.394Z,11.83
2023-04-26T19:16:21.218Z,12.10
2023-04-26T19:18:49.093Z,16.77
2023-04-26T19:21:16.740Z,15.90
2023-04-26T19:23:45.394Z,15.10
2023-04-26T19:26:13.802Z,19.80
2023-04-26T19:28:40.908Z,28.10
2023-04-26T19:31:07.972Z,27.10
2023-04-26T19:33:35.204Z,34.23
2023-04-26T19:36:02.340Z,29.13
2023-04-26T19:38:29.118Z,25.80
2023-04-26T19:40:55.973Z,29.17
2023-04-26T19:43:22.797Z,32.13
2023-04-26T19:45:49.934Z,26.80
2023-04-26T19:48:17.133Z,28.13
2023-04-26T19:50:45.571Z,31.83
2023-04-26T19:53:13.651Z,40.37
2023-04-26T19:55:42.181Z,49.70
2023-04-26T19:58:10.777Z,40.10
2023-04-26T20:00:39.859Z,33.20
2023-04-26T20:03:07.004Z,29.47
2023-04-26T20:05:34.459Z,25.27
2023-04-26T20:08:01.627Z,25.50
2023-04-26T20:10:33.585Z,28.37
2023-04-26T20:13:00.896Z,23.03
2023-04-26T20:15:27.975Z,24.47
2023-04-26T20:17:55.148Z,18.07
2023-04-26T20:20:22.786Z,25.40
2023-04-26T20:22:49.806Z,21.43
2023-04-26T20:25:19.724Z,21.27
2023-04-26T20:27:47.264Z,22.17
2023-04-26T20:30:15.768Z,32.50
2023-04-26T20:32:42.793Z,32.23
2023-04-26T20:35:10.120Z,22.73
2023-04-26T20:37:36.963Z,23.60
2023-04-26T20:40:04.968Z,23.13
2023-04-26T20:42:31.793Z,16.63
2023-04-26T20:45:01.280Z,15.43
2023-04-26T20:47:29.305Z,23.67
2023-04-26T20:49:56.665Z,22.83
2023-04-26T20:52:23.512Z,17.13
2023-04-26T20:54:50.699Z,15.30
2023-04-26T20:57:17.468Z,19.60
2023-04-26T20:59:44.238Z,22.90
2023-04-26T21:02:11.499Z,21.03
2023-04-26T21:04:41.771Z,17.13
2023-04-26T21:07:12.208Z,13.50
2023-04-26T21:09:39.166Z,16.43
2023-04-26T21:12:06.715Z,17.93
2023-04-26T21:14:33.946Z,18.00
2023-04-26T21:17:01.394Z,17.30
2023-04-26T21:19:28.619Z,18.00
2023-04-26T21:21:55.315Z,17.00
2023-04-26T21:24:22.106Z,15.10
2023-04-26T21:26:48.904Z,17.67
2023-04-26T21:29:16.425Z,13.90
2023-04-26T21:31:43.232Z,13.87
2023-04-26T21:34:10.508Z,19.60
2023-04-26T21:36:37.673Z,14.03
2023-04-26T21:39:04.517Z,14.10
2023-04-26T21:41:31.283Z,15.33
2023-04-26T21:43:58.714Z,19.53
2023-04-26T21:46:26.280Z,18.57
2023-04-26T21:48:53.081Z,18.87
2023-04-26T21:51:20.066Z,15.60
2023-04-26T21:53:46.813Z,23.60
2023-04-26T21:56:14.643Z,19.10
2023-04-26T21:58:42.081Z,21.27
2023-04-26T22:01:11.366Z,13.33
2023-04-26T22:03:38.551Z,14.40
2023-04-26T22:06:06.794Z,15.40
2023-04-26T22:08:34.661Z,17.63
2023-04-26T22:11:02.513Z,14.27
2023-04-26T22:13:29.951Z,14.00
2023-04-26T22:15:56.769Z,16.20
2023-04-26T22:18:23.658Z,17.00
2023-04-26T22:20:50.415Z,20.57
2023-04-26T22:23:17.126Z,15.93
2023-04-26T22:25:43.882Z,16.70
2023-04-26T22:28:10.795Z,18.40
2023-04-26T22:30:37.549Z,24.00
2023-04-26T22:33:04.409Z,23.03
2023-04-26T22:35:31.201Z,20.83
2023-04-26T22:37:57.949Z,15.57
2023-04-26T22:40:25.127Z,15.67
2023-04-26T22:42:52.000Z,16.50
2023-04-26T22:45:19.242Z,15.47
2023-04-26T22:47:46.247Z,17.30
2023-04-26T22:50:13.468Z,16.70
2023-04-26T22:52:41.013Z,15.53
2023-04-26T22:55:08.370Z,16.57
2023-04-26T22:57:35.708Z,19.70
2023-04-26T23:00:04.348Z,21.13
2023-04-26T23:02:31.269Z,14.27
2023-04-26T23:04:58.157Z,20.57
2023-04-26T23:07:24.957Z,14.80
2023-04-26T23:09:51.845Z,17.60
2023-04-26T23:12:23.611Z,14.00
2023-04-26T23:14:50.822Z,19.63
2023-04-26T23:17:20.273Z,21.57
2023-04-26T23:19:47.522Z,21.23
2023-04-26T23:22:15.629Z,23.43
2023-04-26T23:24:42.350Z,14.60
2023-04-26T23:27:09.043Z,16.73
2023-04-26T23:29:36.177Z,15.50
2023-04-26T23:32:02.962Z,13.67
2023-04-26T23:34:29.768Z,21.60
2023-04-26T23:36:56.892Z,16.50
2023-04-26T23:39:33.955Z,20.60
2023-04-26T23:44:45.742Z,17.17
2023-04-26T23:47:12.922Z,18.03
2023-04-26T23:49:39.681Z,20.40
2023-04-26T23:52:06.545Z,16.60
2023-04-26T23:54:33.488Z,17.67
2023-04-26T23:57:00.659Z,17.47
2023-04-26T23:59:27.395Z,17.10
